Salt Lake City, Utah
Traffic Map
Current Weather Conditions
Salt Lake City, Utah
Few Clouds
Few Clouds
75°
Feels Like: 75°
Wind Chill: 75° Ceiling: Unl
Heat Index: 75° Visibility: 10mi
Dew Point: 43° Wind: 7mph
Humidity: 32% Direction: 130° (SE)
Pressure: 30.07in Gusts: 0mph
Raw Report DataKSLC 191454Z 13006KT 10SM FEW100 FEW140 FEW200 24/06 A3007 RMK AO2 SLP127 T02390061 53007
Traffic Incident Summary
Active as of:
Severity:
Category:
InformationThere was an issue retrieving the traffic information for this location. Please try a different location or try again shortly.
Advertisements